Time;durP1;ratioP1;P1;durP2;ratioP2;P2;SDS_P1;SDS_P2;PMS_P1;PMS_P2;Temp;Humidity;BMP_temperature;BMP_pressure;BME280_temperature;BME280_humidity;BME280_pressure;Samples;Min_cycle;Max_cycle;Signal;HPM_P1;HPM_P2
2022/03/06 00:04:03;;;;;;;12.20;7.93;;;8.40;72.80;;;;;;11021010;32;20296;-73
2022/03/06 00:10:05;;;;;;;11.50;6.78;;;8.40;73.00;;;;;;11020886;32;20063;-73
2022/03/06 00:16:07;;;;;;;15.25;9.70;;;8.30;72.80;;;;;;11006864;32;20053;-73
2022/03/06 00:22:09;;;;;;;16.58;9.05;;;8.30;72.70;;;;;;11006828;32;20057;-72
2022/03/06 00:28:12;;;;;;;15.80;8.27;;;8.30;72.60;;;;;;11019710;32;20280;-73
2022/03/06 00:34:15;;;;;;;12.15;7.93;;;8.20;73.00;;;;;;11019828;32;20044;-72
2022/03/06 00:40:18;;;;;;;11.25;7.03;;;8.20;73.00;;;;;;11019660;32;20041;-72
2022/03/06 00:46:20;;;;;;;13.68;9.15;;;8.10;72.90;;;;;;11019544;32;20023;-73
2022/03/06 00:52:22;;;;;;;13.05;8.10;;;8.10;72.60;;;;;;11019317;32;20048;-72
2022/03/06 00:58:24;;;;;;;14.48;8.98;;;7.90;72.40;;;;;;11019041;32;20200;-72
2022/03/06 01:04:26;;;;;;;11.38;7.05;;;7.70;72.60;;;;;;11018776;32;20018;-72
2022/03/06 01:10:29;;;;;;;15.10;9.85;;;7.60;72.70;;;;;;11018607;32;20307;-72
2022/03/06 01:16:31;;;;;;;15.90;9.05;;;7.60;72.90;;;;;;11018365;32;20030;-72
2022/03/06 01:22:33;;;;;;;11.05;6.90;;;7.50;72.90;;;;;;11018288;32;20022;-73
2022/03/06 01:28:36;;;;;;;14.95;10.25;;;7.50;72.80;;;;;;11018144;32;20382;-72
2022/03/06 01:34:38;;;;;;;16.58;10.48;;;7.40;72.80;;;;;;11017917;32;20022;-73
2022/03/06 01:40:40;;;;;;;16.23;7.18;;;7.20;72.50;;;;;;11003381;32;20041;-73
2022/03/06 01:46:46;;;;;;;15.98;7.57;;;7.20;72.70;;;;;;11017641;32;20322;-73
2022/03/06 01:53:20;;;;;;;10.13;6.80;;;7.20;73.40;;;;;;11017475;32;20022;-72
2022/03/06 01:59:24;;;;;;;8.77;4.70;;;7.20;73.50;;;;;;11017450;32;20049;-72
2022/03/06 02:05:26;;;;;;;8.73;5.37;;;7.20;73.30;;;;;;11003996;32;20342;-72
2022/03/06 02:11:29;;;;;;;11.77;6.37;;;7.20;73.40;;;;;;11017401;32;20022;-72
2022/03/06 02:17:31;;;;;;;10.15;6.70;;;7.20;73.40;;;;;;11017072;32;20023;-72
2022/03/06 02:23:33;;;;;;;11.38;6.75;;;7.30;73.20;;;;;;11017222;32;20022;-72
2022/03/06 02:29:42;;;;;;;11.55;6.45;;;7.30;73.50;;;;;;11017040;32;20023;-72
2022/03/06 02:35:44;;;;;;;10.38;5.80;;;7.20;73.60;;;;;;11016819;32;20096;-72
2022/03/06 02:41:46;;;;;;;13.02;7.22;;;7.20;73.50;;;;;;11016804;32;20065;-72
2022/03/06 02:47:49;;;;;;;7.80;4.82;;;7.20;73.50;;;;;;11012466;32;20027;-72
2022/03/06 02:53:51;;;;;;;10.80;6.03;;;7.20;73.60;;;;;;11022247;32;20026;-72
2022/03/06 02:59:54;;;;;;;9.30;5.60;;;7.10;73.90;;;;;;11021976;32;20034;-73
2022/03/06 03:05:56;;;;;;;12.30;5.80;;;7.00;73.80;;;;;;11023340;32;20045;-73
2022/03/06 03:11:59;;;;;;;6.43;4.10;;;6.90;73.70;;;;;;11023004;32;20030;-73
2022/03/06 03:18:01;;;;;;;11.95;5.28;;;7.00;74.00;;;;;;11022606;32;20026;-73
2022/03/06 03:24:03;;;;;;;8.05;3.95;;;7.00;74.00;;;;;;11022677;32;20026;-73
2022/03/06 03:30:08;;;;;;;8.45;4.62;;;7.00;73.90;;;;;;11022475;32;20050;-73
2022/03/06 03:36:10;;;;;;;6.72;3.58;;;7.00;74.10;;;;;;11022168;32;20026;-73
2022/03/06 03:42:12;;;;;;;6.87;4.18;;;7.00;74.10;;;;;;11021826;32;20045;-73
2022/03/06 03:48:15;;;;;;;6.95;4.05;;;6.80;74.30;;;;;;11021917;32;20065;-73
2022/03/06 03:54:16;;;;;;;8.80;5.40;;;6.70;74.30;;;;;;11021445;32;20030;-73
2022/03/06 04:00:19;;;;;;;11.23;6.82;;;6.70;74.40;;;;;;11021043;32;20060;-73
2022/03/06 04:06:20;;;;;;;8.38;5.07;;;6.70;74.70;;;;;;11020316;32;20015;-73
2022/03/06 04:12:22;;;;;;;8.27;4.78;;;6.70;74.80;;;;;;11020946;32;20045;-73
2022/03/06 04:18:24;;;;;;;8.13;4.50;;;6.60;74.60;;;;;;11020522;32;20104;-73
2022/03/06 04:24:26;;;;;;;13.85;7.32;;;6.50;74.70;;;;;;11016168;32;20057;-73
2022/03/06 04:30:30;;;;;;;10.20;4.00;;;6.50;74.60;;;;;;11006712;32;20027;-73
2022/03/06 04:36:32;;;;;;;8.73;5.97;;;6.50;74.40;;;;;;11019869;32;20038;-73
2022/03/06 04:42:34;;;;;;;11.75;6.30;;;6.30;74.40;;;;;;11017912;32;20022;-73
2022/03/06 04:48:35;;;;;;;15.75;9.55;;;6.30;74.60;;;;;;11019291;32;20053;-73
2022/03/06 04:54:37;;;;;;;9.07;5.55;;;6.30;74.30;;;;;;11019142;32;20049;-73
2022/03/06 05:00:39;;;;;;;10.02;5.55;;;6.40;73.90;;;;;;11019054;32;20018;-73
2022/03/06 05:06:52;;;;;;;11.10;5.60;;;6.30;74.10;;;;;;11019010;32;20052;-73
2022/03/06 05:12:54;;;;;;;6.70;3.65;;;6.20;74.20;;;;;;11018454;32;20092;-73
2022/03/06 05:18:56;;;;;;;11.25;5.97;;;6.20;74.20;;;;;;10987713;27;20053;-72
2022/03/06 05:24:59;;;;;;;15.18;6.95;;;6.10;74.20;;;;;;10980084;32;20015;-72
2022/03/06 05:31:22;;;;;;;10.00;5.93;;;5.90;74.20;;;;;;11018080;32;20026;-72
2022/03/06 05:37:29;;;;;;;12.32;6.03;;;5.90;74.10;;;;;;11017664;32;20430;-72
2022/03/06 05:43:32;;;;;;;8.52;5.50;;;5.80;74.10;;;;;;11017666;32;20019;-72
2022/03/06 05:49:33;;;;;;;13.38;5.82;;;5.70;74.40;;;;;;11017608;32;20006;-72
2022/03/06 05:55:36;;;;;;;10.27;6.05;;;5.80;74.40;;;;;;11017630;32;20062;-72
2022/03/06 06:01:38;;;;;;;9.20;5.78;;;5.80;74.40;;;;;;11017363;32;20424;-72
2022/03/06 06:07:40;;;;;;;9.10;5.45;;;5.80;74.00;;;;;;11017260;32;20483;-73
2022/03/06 06:13:42;;;;;;;13.32;7.00;;;5.80;74.00;;;;;;11003373;32;20046;-72
2022/03/06 06:19:44;;;;;;;7.82;4.15;;;5.80;73.80;;;;;;11017095;32;20018;-72
2022/03/06 06:25:46;;;;;;;11.73;6.37;;;5.90;73.70;;;;;;11019139;32;20018;-72
2022/03/06 06:31:51;;;;;;;13.05;7.15;;;5.90;74.10;;;;;;11024539;32;20018;-72
2022/03/06 06:37:53;;;;;;;10.50;6.35;;;6.00;74.30;;;;;;11023941;32;20334;-72
2022/03/06 06:43:55;;;;;;;12.95;7.10;;;6.00;74.30;;;;;;11023843;32;20058;-72
2022/03/06 06:49:59;;;;;;;15.93;9.10;;;6.20;74.10;;;;;;11023940;32;20014;-72
2022/03/06 06:56:02;;;;;;;11.63;7.57;;;6.20;73.80;;;;;;11023860;32;20326;-72
2022/03/06 07:02:04;;;;;;;13.62;7.30;;;6.20;74.00;;;;;;11010070;32;20014;-72
2022/03/06 07:08:06;;;;;;;12.43;6.28;;;6.20;73.00;;;;;;11009859;32;20018;-72
2022/03/06 07:14:21;;;;;;;8.63;5.72;;;6.20;74.00;;;;;;11021718;32;20065;-72
2022/03/06 07:20:32;;;;;;;9.93;6.07;;;6.40;74.00;;;;;;11023256;32;20354;-73
2022/03/06 07:26:50;;;;;;;11.63;6.97;;;6.50;72.90;;;;;;11022680;32;20041;-72
2022/03/06 07:32:53;;;;;;;17.98;10.98;;;6.50;73.40;;;;;;11022429;32;20030;-74
2022/03/06 07:38:56;;;;;;;15.10;9.68;;;6.60;73.20;;;;;;11022134;32;20054;-73
2022/03/06 07:45:12;;;;;;;11.65;7.50;;;6.60;72.40;;;;;;11022051;32;20022;-73
2022/03/06 07:51:14;;;;;;;11.52;7.12;;;6.70;70.80;;;;;;11021569;32;20015;-73
2022/03/06 07:57:17;;;;;;;16.52;8.65;;;6.70;70.50;;;;;;11021317;32;20060;-73
2022/03/06 08:10:25;;;;;;;13.30;7.90;;;6.80;69.10;;;;;;11020885;32;20058;-73
2022/03/06 08:16:27;;;;;;;11.75;7.62;;;6.90;68.70;;;;;;11020460;32;20296;-74
2022/03/06 08:22:30;;;;;;;14.95;7.90;;;6.90;68.70;;;;;;11020294;32;20338;-73
2022/03/06 08:28:32;;;;;;;12.52;7.62;;;7.00;67.90;;;;;;11020097;32;20022;-73
2022/03/06 08:34:35;;;;;;;13.90;8.10;;;7.10;68.40;;;;;;11020211;32;20030;-73
2022/03/06 08:40:38;;;;;;;16.02;8.57;;;7.20;67.70;;;;;;11019872;32;20049;-73
2022/03/06 08:46:42;;;;;;;16.00;9.00;;;7.10;66.30;;;;;;11019084;32;20034;-73
2022/03/06 08:52:46;;;;;;;14.10;9.30;;;7.20;65.40;;;;;;11019332;32;20437;-73
2022/03/06 08:58:50;;;;;;;9.77;6.53;;;7.20;65.30;;;;;;11019061;32;20405;-74
2022/03/06 09:04:53;;;;;;;10.05;6.00;;;7.30;65.00;;;;;;10994114;32;20053;-73
2022/03/06 09:10:55;;;;;;;13.75;7.15;;;7.40;65.30;;;;;;10967299;32;20072;-73
2022/03/06 09:16:58;;;;;;;12.37;7.80;;;7.40;64.60;;;;;;10980358;32;20026;-74
2022/03/06 09:23:00;;;;;;;12.15;6.75;;;7.50;64.00;;;;;;10967008;32;20018;-73
2022/03/06 09:29:04;;;;;;;16.12;8.20;;;7.60;64.80;;;;;;10980321;32;20045;-73
2022/03/06 09:35:08;;;;;;;13.25;7.37;;;7.70;63.20;;;;;;10981060;32;20058;-73
2022/03/06 09:41:16;;;;;;;13.43;8.20;;;7.70;62.40;;;;;;11017373;32;20018;-74
2022/03/06 09:47:18;;;;;;;12.15;5.80;;;7.70;62.70;;;;;;11017957;32;20019;-73
2022/03/06 09:53:20;;;;;;;9.95;5.40;;;7.80;62.40;;;;;;11004337;32;20049;-73
2022/03/06 09:59:23;;;;;;;14.75;8.60;;;7.90;61.90;;;;;;11018178;32;20049;-73
2022/03/06 10:05:26;;;;;;;12.48;6.93;;;8.10;61.40;;;;;;11024342;32;20053;-73
2022/03/06 10:11:28;;;;;;;8.70;5.82;;;8.20;60.90;;;;;;11021089;32;20022;-73
2022/03/06 10:17:32;;;;;;;10.90;6.40;;;8.20;61.50;;;;;;11011104;32;20034;-73
2022/03/06 10:23:35;;;;;;;13.15;7.15;;;8.40;60.00;;;;;;11025003;32;20451;-73
2022/03/06 10:29:38;;;;;;;12.45;6.53;;;8.50;60.70;;;;;;11006995;32;20026;-73
2022/03/06 10:35:42;;;;;;;11.32;6.60;;;8.60;59.30;;;;;;11024685;32;20022;-73
2022/03/06 10:41:47;;;;;;;10.25;6.10;;;8.70;57.70;;;;;;11024454;32;20052;-73
2022/03/06 10:47:49;;;;;;;10.65;6.05;;;8.80;57.50;;;;;;11024227;32;20029;-73
2022/03/06 10:53:57;;;;;;;9.80;5.22;;;9.00;56.40;;;;;;11023932;32;20053;-73
2022/03/06 11:00:00;;;;;;;9.05;5.30;;;9.20;55.90;;;;;;11020553;32;20015;-73
2022/03/06 11:06:04;;;;;;;7.90;5.15;;;9.50;58.70;;;;;;11023497;32;20028;-73
2022/03/06 11:12:07;;;;;;;13.13;6.87;;;9.40;56.20;;;;;;11022418;32;20040;-74
2022/03/06 11:18:10;;;;;;;9.02;4.97;;;9.50;57.60;;;;;;11023085;32;20053;-73
2022/03/06 11:24:19;;;;;;;10.00;6.20;;;9.80;56.70;;;;;;11019313;32;20338;-73
2022/03/06 11:30:22;;;;;;;9.60;6.05;;;10.20;55.20;;;;;;11022788;32;20045;-72
2022/03/06 11:36:26;;;;;;;10.52;6.82;;;10.40;53.40;;;;;;11019007;32;20030;-72
2022/03/06 11:42:50;;;;;;;8.35;5.62;;;10.70;55.10;;;;;;11022173;32;20366;-74
2022/03/06 11:48:55;;;;;;;9.85;4.80;;;11.00;53.70;;;;;;11022021;32;20048;-73
2022/03/06 11:54:59;;;;;;;11.18;6.28;;;11.30;51.30;;;;;;11008263;32;20076;-74
2022/03/06 12:01:03;;;;;;;11.73;7.97;;;11.30;51.80;;;;;;11021461;32;20018;-72
2022/03/06 12:07:10;;;;;;;10.48;6.65;;;11.50;52.50;;;;;;11021269;32;20058;-72
2022/03/06 12:13:20;;;;;;;12.10;7.20;;;11.70;52.00;;;;;;11020881;32;20026;-72
2022/03/06 12:19:22;;;;;;;9.60;6.00;;;11.50;52.20;;;;;;10998817;32;20034;-72
2022/03/06 12:25:31;;;;;;;10.00;6.40;;;11.70;50.60;;;;;;10981954;32;20033;-72
2022/03/06 12:31:36;;;;;;;10.57;6.72;;;11.80;49.50;;;;;;10982435;32;20023;-72
2022/03/06 12:37:43;;;;;;;10.50;7.75;;;11.90;50.60;;;;;;10981751;32;20023;-73
2022/03/06 12:43:49;;;;;;;10.40;5.60;;;11.70;49.70;;;;;;10968436;32;20468;-74
2022/03/06 12:49:52;;;;;;;10.40;6.28;;;11.80;49.10;;;;;;10981675;32;20045;-71
2022/03/06 12:55:59;;;;;;;10.77;6.75;;;11.90;48.40;;;;;;10981330;32;20058;-73
2022/03/06 13:02:01;;;;;;;9.90;7.40;;;12.10;51.30;;;;;;10981150;32;20057;-73
2022/03/06 13:08:04;;;;;;;9.55;6.62;;;11.90;51.30;;;;;;10981025;32;20057;-71
2022/03/06 13:14:09;;;;;;;7.37;4.40;;;11.80;50.30;;;;;;10609351;27;12205815;-72
2022/03/06 13:20:14;;;;;;;10.90;5.72;;;12.00;50.30;;;;;;10778791;33;20110;-73
2022/03/06 13:26:18;;;;;;;13.68;7.82;;;11.90;50.60;;;;;;10790416;33;20350;-73
2022/03/06 13:32:28;;;;;;;11.90;8.00;;;11.90;50.20;;;;;;10790223;33;20028;-72
2022/03/06 13:38:34;;;;;;;8.85;5.15;;;12.00;49.80;;;;;;10787975;33;20050;-73
2022/03/06 13:44:36;;;;;;;8.27;5.30;;;12.00;49.80;;;;;;10851653;32;20086;-73
2022/03/06 13:50:45;;;;;;;11.18;6.12;;;12.10;48.70;;;;;;10865929;32;20324;-73
2022/03/06 13:56:48;;;;;;;11.97;8.50;;;12.30;45.90;;;;;;10853390;32;20059;-73
2022/03/06 14:03:02;;;;;;;7.97;4.55;;;12.40;48.00;;;;;;10866458;32;20023;-72
2022/03/06 14:09:26;;;;;;;10.75;6.70;;;12.50;46.40;;;;;;10866588;32;20050;-73
2022/03/06 14:15:28;;;;;;;13.32;7.20;;;12.80;45.50;;;;;;10866487;32;20028;-72
2022/03/06 14:21:32;;;;;;;14.32;8.65;;;12.90;44.40;;;;;;10864976;32;20024;-74
2022/03/06 14:27:35;;;;;;;9.23;5.85;;;13.10;44.80;;;;;;10865412;32;20119;-73
2022/03/06 14:33:37;;;;;;;12.77;9.10;;;13.00;46.10;;;;;;10865368;32;20055;-73
2022/03/06 14:39:39;;;;;;;12.32;7.50;;;12.90;44.60;;;;;;10864355;32;20058;-73
2022/03/06 14:45:42;;;;;;;16.02;9.35;;;12.80;44.50;;;;;;10865967;32;20028;-72
2022/03/06 14:51:45;;;;;;;13.00;6.87;;;12.90;44.80;;;;;;10872784;32;20339;-72
2022/03/06 14:57:47;;;;;;;14.57;9.77;;;12.80;45.90;;;;;;10859344;32;20065;-73
2022/03/06 15:03:49;;;;;;;13.18;9.15;;;12.90;46.80;;;;;;10872272;32;20031;-74
2022/03/06 15:09:52;;;;;;;13.00;9.63;;;13.10;48.40;;;;;;10868742;32;20442;-72
2022/03/06 15:15:55;;;;;;;14.77;8.93;;;13.00;47.90;;;;;;10844792;32;20027;-73
2022/03/06 15:21:57;;;;;;;17.08;9.68;;;13.10;46.50;;;;;;10834625;32;20393;-72
2022/03/06 15:27:59;;;;;;;14.90;8.80;;;13.20;48.30;;;;;;10834316;32;20066;-72
2022/03/06 15:34:02;;;;;;;13.95;8.23;;;13.40;48.10;;;;;;10834186;32;20023;-71
2022/03/06 15:40:06;;;;;;;14.25;9.65;;;13.70;47.80;;;;;;10834046;32;20032;-72
2022/03/06 15:46:08;;;;;;;16.60;10.30;;;13.90;46.90;;;;;;10820607;32;20016;-73
2022/03/06 15:52:11;;;;;;;15.48;8.20;;;13.90;47.00;;;;;;10832081;32;20024;-74
2022/03/06 15:58:14;;;;;;;16.80;8.98;;;14.30;46.30;;;;;;10830733;32;20023;-72
2022/03/06 16:04:18;;;;;;;12.85;9.00;;;14.50;46.40;;;;;;10830918;32;20046;-72
2022/03/06 16:10:20;;;;;;;13.82;10.15;;;14.60;46.50;;;;;;10833726;32;20414;-72
2022/03/06 16:16:23;;;;;;;12.02;9.25;;;14.50;46.50;;;;;;10832673;32;20050;-72
2022/03/06 16:22:25;;;;;;;16.40;10.38;;;14.30;47.30;;;;;;10819673;32;20465;-72
2022/03/06 16:28:27;;;;;;;15.13;9.20;;;14.20;46.00;;;;;;10832707;32;20089;-73
2022/03/06 16:34:36;;;;;;;23.70;9.60;;;14.20;46.40;;;;;;10831275;32;20066;-72
2022/03/06 16:40:39;;;;;;;15.80;10.13;;;13.60;46.90;;;;;;10849429;32;20032;-72
2022/03/06 16:46:41;;;;;;;26.30;17.27;;;12.90;48.00;;;;;;10869095;32;20058;-72
2022/03/06 16:52:43;;;;;;;15.95;11.20;;;12.20;49.30;;;;;;10868847;32;20042;-72
2022/03/06 16:58:45;;;;;;;17.10;12.73;;;11.70;50.10;;;;;;10854944;32;20023;-72
2022/03/06 17:04:48;;;;;;;17.05;12.45;;;11.20;50.80;;;;;;10853976;32;20046;-72
2022/03/06 17:10:50;;;;;;;14.43;11.85;;;10.70;51.60;;;;;;10867986;32;20043;-71
2022/03/06 17:16:54;;;;;;;13.45;7.97;;;10.50;52.50;;;;;;10854524;32;20054;-71
2022/03/06 17:22:56;;;;;;;11.52;8.20;;;10.40;52.70;;;;;;10867996;32;20046;-71
2022/03/06 17:29:00;;;;;;;13.35;9.27;;;10.30;52.90;;;;;;10854562;32;20034;-71
2022/03/06 17:35:03;;;;;;;12.20;9.00;;;10.20;53.30;;;;;;10863513;32;20392;-71
2022/03/06 17:41:07;;;;;;;12.45;9.43;;;10.00;53.80;;;;;;10867346;32;20316;-72
2022/03/06 17:47:11;;;;;;;9.73;5.95;;;9.90;54.50;;;;;;10854166;32;20289;-72
2022/03/06 17:53:13;;;;;;;9.43;6.50;;;9.90;54.80;;;;;;10867159;32;20386;-72
2022/03/06 17:59:15;;;;;;;8.63;4.78;;;9.80;55.30;;;;;;10867147;32;20032;-72
2022/03/06 18:05:18;;;;;;;8.57;4.72;;;9.70;55.90;;;;;;10867090;32;20400;-72
2022/03/06 18:11:21;;;;;;;8.40;4.78;;;9.60;56.40;;;;;;10866936;32;20070;-72
2022/03/06 18:17:24;;;;;;;8.30;5.50;;;9.50;57.00;;;;;;10866553;32;20046;-72
2022/03/06 18:23:26;;;;;;;15.30;8.40;;;9.40;57.50;;;;;;10871016;32;20445;-72
2022/03/06 18:29:29;;;;;;;15.85;9.00;;;9.30;57.80;;;;;;10873929;32;20019;-72
2022/03/06 18:35:31;;;;;;;9.45;6.60;;;9.30;58.00;;;;;;10871080;32;20110;-72
2022/03/06 18:41:33;;;;;;;8.60;5.78;;;9.20;58.60;;;;;;10873569;32;20058;-72
2022/03/06 18:47:35;;;;;;;11.25;7.50;;;9.20;59.10;;;;;;10873266;32;20023;-72
2022/03/06 18:53:39;;;;;;;10.02;6.03;;;9.10;59.20;;;;;;10873091;32;20020;-72
2022/03/06 18:59:41;;;;;;;14.75;8.45;;;9.00;59.40;;;;;;10872241;32;20040;-72
2022/03/06 19:05:43;;;;;;;11.90;8.18;;;8.90;60.00;;;;;;10871772;32;20046;-71
2022/03/06 19:11:45;;;;;;;7.57;6.00;;;8.90;60.50;;;;;;10872409;32;20016;-71
2022/03/06 19:17:48;;;;;;;21.12;7.72;;;8.80;61.70;;;;;;10872093;32;20094;-72
2022/03/06 19:23:52;;;;;;;10.85;7.97;;;8.70;62.50;;;;;;10870435;32;20054;-72
2022/03/06 19:29:54;;;;;;;13.38;7.85;;;8.60;63.00;;;;;;10871409;32;20015;-72
2022/03/06 19:35:56;;;;;;;11.55;7.35;;;8.40;64.30;;;;;;10858148;32;20054;-72
2022/03/06 19:41:59;;;;;;;13.40;7.75;;;8.10;64.90;;;;;;10855715;32;20039;-72
2022/03/06 19:48:01;;;;;;;16.17;9.02;;;8.00;66.00;;;;;;10867548;32;20023;-72
2022/03/06 19:54:04;;;;;;;13.60;7.22;;;8.00;66.30;;;;;;10858045;32;20332;-72
2022/03/06 20:00:10;;;;;;;9.85;7.18;;;8.10;66.40;;;;;;10870632;32;20097;-72
2022/03/06 20:06:14;;;;;;;19.65;9.65;;;8.10;66.70;;;;;;10857219;32;20041;-72
2022/03/06 20:12:17;;;;;;;13.02;8.07;;;8.10;66.70;;;;;;10870243;32;20063;-72
2022/03/06 20:18:20;;;;;;;14.38;9.57;;;8.10;66.60;;;;;;10869766;32;20058;-72
2022/03/06 20:24:22;;;;;;;11.43;7.70;;;8.00;66.60;;;;;;10869942;32;20011;-72
2022/03/06 20:30:25;;;;;;;12.48;7.35;;;8.00;67.10;;;;;;10866970;32;20042;-72
2022/03/06 20:36:27;;;;;;;12.93;7.97;;;8.00;67.50;;;;;;10869481;32;20059;-71
2022/03/06 20:42:29;;;;;;;15.82;10.82;;;8.00;67.60;;;;;;10855915;32;20012;-72
2022/03/06 20:48:32;;;;;;;11.57;7.93;;;7.90;67.40;;;;;;10868635;32;20055;-72
2022/03/06 20:54:34;;;;;;;16.17;11.40;;;7.90;67.70;;;;;;10868898;32;20038;-71
2022/03/06 21:00:36;;;;;;;13.27;8.07;;;7.80;67.90;;;;;;10868610;32;20039;-72
2022/03/06 21:06:39;;;;;;;10.38;6.28;;;7.80;67.90;;;;;;10868367;32;20372;-72
2022/03/06 21:12:42;;;;;;;12.32;7.20;;;7.70;68.10;;;;;;10867803;32;20016;-71
2022/03/06 21:18:45;;;;;;;8.18;5.25;;;7.70;68.80;;;;;;10931489;27;20039;-71
2022/03/06 21:24:47;;;;;;;13.20;8.32;;;7.70;68.90;;;;;;10980419;32;20331;-71
2022/03/06 21:30:49;;;;;;;13.90;7.45;;;7.60;69.10;;;;;;10980238;32;20063;-71
2022/03/06 21:36:51;;;;;;;10.82;7.45;;;7.50;69.40;;;;;;10979940;32;20073;-71
2022/03/06 21:42:54;;;;;;;13.73;9.30;;;7.50;68.90;;;;;;10979809;32;20026;-71
2022/03/06 21:48:56;;;;;;;10.63;7.20;;;7.50;68.70;;;;;;10966357;32;20031;-71
2022/03/06 21:55:00;;;;;;;13.18;8.32;;;7.50;68.50;;;;;;10979741;32;20023;-71
2022/03/06 22:01:02;;;;;;;13.13;8.98;;;7.50;68.50;;;;;;10979566;32;20045;-71
2022/03/06 22:07:05;;;;;;;11.38;7.50;;;7.30;69.30;;;;;;10966149;32;20027;-72
2022/03/06 22:13:09;;;;;;;13.55;7.68;;;7.20;69.90;;;;;;10949293;32;20030;-72
2022/03/06 22:19:11;;;;;;;16.60;8.10;;;7.20;69.50;;;;;;10941376;32;20039;-72
2022/03/06 22:25:14;;;;;;;8.00;5.60;;;7.20;69.30;;;;;;10941526;32;20050;-72
2022/03/06 22:31:17;;;;;;;12.63;9.63;;;7.20;69.20;;;;;;10941306;32;20026;-72
2022/03/06 22:37:19;;;;;;;11.73;7.95;;;7.20;69.00;;;;;;10927724;32;20027;-72
2022/03/06 22:43:22;;;;;;;12.77;7.32;;;7.10;69.40;;;;;;10940968;32;20032;-72
2022/03/06 22:49:24;;;;;;;17.90;10.63;;;7.10;70.00;;;;;;10940975;32;20027;-72
2022/03/06 22:55:26;;;;;;;16.12;9.40;;;7.00;70.60;;;;;;10940910;32;20023;-72
2022/03/06 23:01:29;;;;;;;17.27;9.82;;;7.00;70.40;;;;;;10939247;32;20023;-72
2022/03/06 23:07:31;;;;;;;14.90;9.82;;;7.00;70.10;;;;;;10926665;32;20327;-72
2022/03/06 23:13:34;;;;;;;14.63;8.35;;;7.00;70.00;;;;;;10947659;32;20023;-72
2022/03/06 23:19:37;;;;;;;10.80;6.82;;;6.90;69.80;;;;;;10947292;32;20100;-72
2022/03/06 23:25:40;;;;;;;14.20;9.10;;;6.80;69.80;;;;;;10947159;32;20049;-72
2022/03/06 23:31:43;;;;;;;15.82;10.52;;;6.80;69.90;;;;;;10946942;32;20027;-73
2022/03/06 23:37:45;;;;;;;14.98;8.50;;;6.70;70.00;;;;;;10946747;32;20019;-73
2022/03/06 23:43:47;;;;;;;11.65;7.12;;;6.70;69.80;;;;;;10946518;32;20054;-71
2022/03/06 23:49:49;;;;;;;10.73;7.10;;;6.70;69.70;;;;;;10946312;32;20050;-72
2022/03/06 23:55:51;;;;;;;11.70;7.32;;;6.60;69.80;;;;;;10946054;32;20050;-72
